sensor_id;sensor_type;location;lat;lon;timestamp;P1;durP1;ratioP1;P2;durP2;ratioP2
67090;SDS011;54007;55.818;49.058;2023-09-19T09:24:53;7.15;;;1.60;;
67090;SDS011;54007;55.818;49.058;2023-09-19T09:27:18;6.05;;;1.45;;
67090;SDS011;54007;55.818;49.058;2023-09-19T09:29:45;6.13;;;1.30;;
67090;SDS011;54007;55.818;49.058;2023-09-19T09:32:20;4.72;;;1.47;;
67090;SDS011;54007;55.818;49.058;2023-09-19T09:34:46;4.30;;;1.00;;
67090;SDS011;54007;55.818;49.058;2023-09-19T09:37:17;6.47;;;1.40;;
67090;SDS011;54007;55.818;49.058;2023-09-19T09:39:57;6.65;;;1.20;;
67090;SDS011;54007;55.818;49.058;2023-09-19T09:42:31;6.47;;;1.40;;
67090;SDS011;54007;55.818;49.058;2023-09-19T09:45:15;7.28;;;1.60;;
67090;SDS011;54007;55.818;49.058;2023-09-19T09:47:46;4.92;;;1.60;;
67090;SDS011;54007;55.818;49.058;2023-09-19T09:50:24;3.80;;;1.30;;
67090;SDS011;54007;55.818;49.058;2023-09-19T09:52:49;4.67;;;1.20;;
67090;SDS011;54007;55.818;49.058;2023-09-19T09:55:15;3.45;;;1.10;;
67090;SDS011;54007;55.818;49.058;2023-09-19T09:57:41;5.37;;;1.10;;
67090;SDS011;54007;55.818;49.058;2023-09-19T10:00:09;4.65;;;1.30;;
67090;SDS011;54007;55.818;49.058;2023-09-19T10:02:36;5.33;;;1.20;;
67090;SDS011;54007;55.818;49.058;2023-09-19T10:05:14;4.97;;;1.00;;
67090;SDS011;54007;55.818;49.058;2023-09-19T10:07:39;5.55;;;1.22;;
67090;SDS011;54007;55.818;49.058;2023-09-19T10:10:05;4.62;;;1.30;;
67090;SDS011;54007;55.818;49.058;2023-09-19T10:12:42;5.42;;;2.08;;
67090;SDS011;54007;55.818;49.058;2023-09-19T10:15:09;4.53;;;1.30;;
67090;SDS011;54007;55.818;49.058;2023-09-19T10:17:32;4.55;;;1.25;;
67090;SDS011;54007;55.818;49.058;2023-09-19T10:19:58;4.30;;;1.17;;
67090;SDS011;54007;55.818;49.058;2023-09-19T10:22:24;4.00;;;1.00;;
67090;SDS011;54007;55.818;49.058;2023-09-19T10:24:49;4.03;;;1.10;;
67090;SDS011;54007;55.818;49.058;2023-09-19T10:27:18;3.65;;;1.35;;
67090;SDS011;54007;55.818;49.058;2023-09-19T10:29:44;7.30;;;1.30;;
67090;SDS011;54007;55.818;49.058;2023-09-19T10:32:10;4.40;;;1.40;;
67090;SDS011;54007;55.818;49.058;2023-09-19T10:34:36;3.62;;;1.22;;
67090;SDS011;54007;55.818;49.058;2023-09-19T10:37:02;7.92;;;1.30;;
67090;SDS011;54007;55.818;49.058;2023-09-19T10:39:28;6.30;;;2.07;;
67090;SDS011;54007;55.818;49.058;2023-09-19T10:42:04;4.30;;;1.30;;
67090;SDS011;54007;55.818;49.058;2023-09-19T10:44:30;5.42;;;1.00;;
67090;SDS011;54007;55.818;49.058;2023-09-19T10:46:56;6.08;;;1.70;;
67090;SDS011;54007;55.818;49.058;2023-09-19T10:49:22;8.17;;;1.50;;
67090;SDS011;54007;55.818;49.058;2023-09-19T10:51:48;5.97;;;1.50;;
67090;SDS011;54007;55.818;49.058;2023-09-19T10:54:13;3.65;;;1.00;;
67090;SDS011;54007;55.818;49.058;2023-09-19T10:56:43;4.07;;;1.17;;
67090;SDS011;54007;55.818;49.058;2023-09-19T10:59:08;6.62;;;1.50;;
67090;SDS011;54007;55.818;49.058;2023-09-19T11:07:06;5.92;;;1.30;;
67090;SDS011;54007;55.818;49.058;2023-09-19T11:09:46;3.70;;;1.40;;
67090;SDS011;54007;55.818;49.058;2023-09-19T11:12:12;6.17;;;1.20;;
67090;SDS011;54007;55.818;49.058;2023-09-19T11:14:38;4.10;;;1.20;;
67090;SDS011;54007;55.818;49.058;2023-09-19T11:22:22;5.45;;;1.40;;
67090;SDS011;54007;55.818;49.058;2023-09-19T11:24:48;6.55;;;1.25;;
67090;SDS011;54007;55.818;49.058;2023-09-19T11:27:14;5.90;;;1.00;;
67090;SDS011;54007;55.818;49.058;2023-09-19T11:29:39;6.15;;;1.30;;
67090;SDS011;54007;55.818;49.058;2023-09-19T11:32:05;4.87;;;1.10;;
67090;SDS011;54007;55.818;49.058;2023-09-19T11:37:03;3.72;;;1.30;;
67090;SDS011;54007;55.818;49.058;2023-09-19T11:39:31;4.53;;;1.10;;
67090;SDS011;54007;55.818;49.058;2023-09-19T11:41:57;5.45;;;1.50;;
67090;SDS011;54007;55.818;49.058;2023-09-19T11:46:52;6.80;;;1.30;;
67090;SDS011;54007;55.818;49.058;2023-09-19T11:49:25;7.08;;;1.42;;
67090;SDS011;54007;55.818;49.058;2023-09-19T11:51:43;6.00;;;1.32;;
67090;SDS011;54007;55.818;49.058;2023-09-19T11:54:12;4.50;;;1.20;;
67090;SDS011;54007;55.818;49.058;2023-09-19T11:56:38;6.35;;;1.20;;
67090;SDS011;54007;55.818;49.058;2023-09-19T11:59:11;6.75;;;1.20;;
67090;SDS011;54007;55.818;49.058;2023-09-19T12:01:38;5.85;;;1.20;;
67090;SDS011;54007;55.818;49.058;2023-09-19T12:04:03;3.70;;;1.20;;
67090;SDS011;54007;55.818;49.058;2023-09-19T12:06:29;6.03;;;1.30;;
67090;SDS011;54007;55.818;49.058;2023-09-19T12:09:09;6.37;;;1.40;;
67090;SDS011;54007;55.818;49.058;2023-09-19T12:11:32;5.97;;;1.90;;
67090;SDS011;54007;55.818;49.058;2023-09-19T12:13:58;7.33;;;1.60;;
67090;SDS011;54007;55.818;49.058;2023-09-19T12:16:24;6.20;;;1.40;;
67090;SDS011;54007;55.818;49.058;2023-09-19T12:18:50;4.03;;;1.02;;
67090;SDS011;54007;55.818;49.058;2023-09-19T12:21:23;6.42;;;1.50;;
67090;SDS011;54007;55.818;49.058;2023-09-19T12:24:00;4.53;;;1.67;;
67090;SDS011;54007;55.818;49.058;2023-09-19T12:26:23;4.72;;;1.40;;
67090;SDS011;54007;55.818;49.058;2023-09-19T12:28:49;4.42;;;1.20;;
67090;SDS011;54007;55.818;49.058;2023-09-19T12:31:15;3.15;;;1.10;;
67090;SDS011;54007;55.818;49.058;2023-09-19T12:33:43;3.17;;;0.87;;
67090;SDS011;54007;55.818;49.058;2023-09-19T12:36:19;3.90;;;1.25;;
67090;SDS011;54007;55.818;49.058;2023-09-19T12:38:47;6.10;;;1.50;;
67090;SDS011;54007;55.818;49.058;2023-09-19T12:41:10;5.73;;;1.10;;
67090;SDS011;54007;55.818;49.058;2023-09-19T12:43:36;5.83;;;1.30;;
67090;SDS011;54007;55.818;49.058;2023-09-19T12:46:02;4.30;;;1.30;;
67090;SDS011;54007;55.818;49.058;2023-09-19T12:48:28;3.72;;;1.20;;
67090;SDS011;54007;55.818;49.058;2023-09-19T12:51:00;4.05;;;1.12;;
67090;SDS011;54007;55.818;49.058;2023-09-19T12:53:26;5.80;;;1.33;;
67090;SDS011;54007;55.818;49.058;2023-09-19T12:55:57;5.85;;;1.20;;
67090;SDS011;54007;55.818;49.058;2023-09-19T12:58:17;4.80;;;1.00;;
67090;SDS011;54007;55.818;49.058;2023-09-19T13:00:43;5.63;;;1.00;;
67090;SDS011;54007;55.818;49.058;2023-09-19T13:06:02;5.70;;;1.15;;
67090;SDS011;54007;55.818;49.058;2023-09-19T13:08:21;7.23;;;1.57;;
67090;SDS011;54007;55.818;49.058;2023-09-19T13:13:29;7.08;;;1.50;;
67090;SDS011;54007;55.818;49.058;2023-09-19T13:16:02;6.35;;;1.50;;
67090;SDS011;54007;55.818;49.058;2023-09-19T13:18:27;4.60;;;1.10;;
67090;SDS011;54007;55.818;49.058;2023-09-19T13:21:09;4.65;;;1.30;;
67090;SDS011;54007;55.818;49.058;2023-09-19T13:23:34;8.30;;;1.22;;
67090;SDS011;54007;55.818;49.058;2023-09-19T13:26:00;4.37;;;1.37;;
67090;SDS011;54007;55.818;49.058;2023-09-19T13:28:26;5.55;;;1.50;;
67090;SDS011;54007;55.818;49.058;2023-09-19T13:30:52;5.90;;;1.42;;
67090;SDS011;54007;55.818;49.058;2023-09-19T13:33:17;4.67;;;1.10;;
67090;SDS011;54007;55.818;49.058;2023-09-19T13:35:43;7.80;;;1.20;;
67090;SDS011;54007;55.818;49.058;2023-09-19T13:38:09;4.20;;;1.30;;
67090;SDS011;54007;55.818;49.058;2023-09-19T13:40:35;6.78;;;2.30;;
67090;SDS011;54007;55.818;49.058;2023-09-19T13:43:01;8.73;;;1.80;;
67090;SDS011;54007;55.818;49.058;2023-09-19T13:45:27;6.05;;;1.50;;
67090;SDS011;54007;55.818;49.058;2023-09-19T13:47:52;9.50;;;1.85;;
67090;SDS011;54007;55.818;49.058;2023-09-19T13:50:18;4.77;;;1.40;;
67090;SDS011;54007;55.818;49.058;2023-09-19T13:52:44;7.35;;;1.72;;
67090;SDS011;54007;55.818;49.058;2023-09-19T13:55:10;9.58;;;2.05;;
67090;SDS011;54007;55.818;49.058;2023-09-19T13:57:36;8.30;;;1.77;;
67090;SDS011;54007;55.818;49.058;2023-09-19T14:00:02;7.33;;;1.70;;
67090;SDS011;54007;55.818;49.058;2023-09-19T14:02:27;10.23;;;1.83;;
67090;SDS011;54007;55.818;49.058;2023-09-19T14:04:53;8.53;;;1.60;;
67090;SDS011;54007;55.818;49.058;2023-09-19T14:07:19;9.08;;;2.10;;
67090;SDS011;54007;55.818;49.058;2023-09-19T14:09:45;12.27;;;2.23;;
67090;SDS011;54007;55.818;49.058;2023-09-19T14:12:11;7.17;;;1.70;;
67090;SDS011;54007;55.818;49.058;2023-09-19T14:14:37;7.10;;;1.77;;
67090;SDS011;54007;55.818;49.058;2023-09-19T14:17:03;8.88;;;1.70;;
67090;SDS011;54007;55.818;49.058;2023-09-19T14:19:28;11.63;;;1.95;;
67090;SDS011;54007;55.818;49.058;2023-09-19T14:21:58;9.55;;;2.25;;
67090;SDS011;54007;55.818;49.058;2023-09-19T14:24:24;12.60;;;2.75;;
67090;SDS011;54007;55.818;49.058;2023-09-19T14:26:50;11.65;;;2.30;;
67090;SDS011;54007;55.818;49.058;2023-09-19T14:29:15;17.45;;;2.62;;
67090;SDS011;54007;55.818;49.058;2023-09-19T14:31:41;17.00;;;3.17;;
67090;SDS011;54007;55.818;49.058;2023-09-19T14:34:13;18.00;;;2.95;;
67090;SDS011;54007;55.818;49.058;2023-09-19T14:36:39;19.32;;;3.17;;
67090;SDS011;54007;55.818;49.058;2023-09-19T14:39:05;9.53;;;2.02;;
67090;SDS011;54007;55.818;49.058;2023-09-19T14:41:34;11.22;;;2.25;;
67090;SDS011;54007;55.818;49.058;2023-09-19T14:44:01;10.63;;;1.92;;
67090;SDS011;54007;55.818;49.058;2023-09-19T14:46:25;13.32;;;2.50;;
67090;SDS011;54007;55.818;49.058;2023-09-19T14:48:51;9.10;;;1.97;;
67090;SDS011;54007;55.818;49.058;2023-09-19T14:51:17;13.10;;;2.80;;
67090;SDS011;54007;55.818;49.058;2023-09-19T14:53:46;6.42;;;2.17;;
67090;SDS011;54007;55.818;49.058;2023-09-19T14:56:09;13.68;;;2.10;;
67090;SDS011;54007;55.818;49.058;2023-09-19T14:58:35;8.85;;;2.00;;
67090;SDS011;54007;55.818;49.058;2023-09-19T15:01:02;14.13;;;2.37;;
67090;SDS011;54007;55.818;49.058;2023-09-19T15:03:27;9.08;;;2.80;;
67090;SDS011;54007;55.818;49.058;2023-09-19T15:05:58;7.45;;;2.92;;
67090;SDS011;54007;55.818;49.058;2023-09-19T15:08:18;15.13;;;3.20;;
67090;SDS011;54007;55.818;49.058;2023-09-19T15:10:49;12.60;;;2.95;;
67090;SDS011;54007;55.818;49.058;2023-09-19T15:13:10;22.17;;;3.45;;
67090;SDS011;54007;55.818;49.058;2023-09-19T15:15:36;19.57;;;4.15;;
67090;SDS011;54007;55.818;49.058;2023-09-19T15:18:02;22.93;;;5.03;;
67090;SDS011;54007;55.818;49.058;2023-09-19T15:20:27;23.80;;;8.97;;
67090;SDS011;54007;55.818;49.058;2023-09-19T15:22:53;20.35;;;6.08;;
67090;SDS011;54007;55.818;49.058;2023-09-19T15:25:19;19.52;;;6.17;;
67090;SDS011;54007;55.818;49.058;2023-09-19T15:27:45;44.27;;;16.57;;
67090;SDS011;54007;55.818;49.058;2023-09-19T15:30:11;14.65;;;5.22;;
67090;SDS011;54007;55.818;49.058;2023-09-19T15:32:37;14.33;;;3.95;;
67090;SDS011;54007;55.818;49.058;2023-09-19T15:35:03;17.52;;;3.98;;
67090;SDS011;54007;55.818;49.058;2023-09-19T15:37:28;19.30;;;6.40;;
67090;SDS011;54007;55.818;49.058;2023-09-19T15:39:58;27.67;;;9.67;;
67090;SDS011;54007;55.818;49.058;2023-09-19T15:42:24;21.85;;;7.50;;
67090;SDS011;54007;55.818;49.058;2023-09-19T15:44:50;26.77;;;10.82;;
67090;SDS011;54007;55.818;49.058;2023-09-19T15:47:16;26.50;;;9.63;;
67090;SDS011;54007;55.818;49.058;2023-09-19T15:49:42;24.55;;;6.92;;
67090;SDS011;54007;55.818;49.058;2023-09-19T15:52:14;23.62;;;6.05;;
67090;SDS011;54007;55.818;49.058;2023-09-19T15:54:40;18.43;;;5.80;;
67090;SDS011;54007;55.818;49.058;2023-09-19T15:57:05;23.02;;;6.78;;
67090;SDS011;54007;55.818;49.058;2023-09-19T15:59:31;29.65;;;9.05;;
67090;SDS011;54007;55.818;49.058;2023-09-19T16:01:57;29.00;;;6.30;;
67090;SDS011;54007;55.818;49.058;2023-09-19T16:04:23;21.45;;;5.58;;
67090;SDS011;54007;55.818;49.058;2023-09-19T16:06:49;23.50;;;5.40;;
67090;SDS011;54007;55.818;49.058;2023-09-19T16:09:15;29.60;;;5.65;;
67090;SDS011;54007;55.818;49.058;2023-09-19T16:11:40;22.73;;;4.53;;
67090;SDS011;54007;55.818;49.058;2023-09-19T16:14:06;26.23;;;7.33;;
67090;SDS011;54007;55.818;49.058;2023-09-19T16:16:32;22.58;;;5.10;;
67090;SDS011;54007;55.818;49.058;2023-09-19T16:19:01;22.30;;;5.13;;
67090;SDS011;54007;55.818;49.058;2023-09-19T16:21:27;26.77;;;4.67;;
67090;SDS011;54007;55.818;49.058;2023-09-19T16:23:53;30.08;;;7.53;;
67090;SDS011;54007;55.818;49.058;2023-09-19T16:26:21;30.52;;;8.35;;
67090;SDS011;54007;55.818;49.058;2023-09-19T16:28:49;36.73;;;8.00;;
67090;SDS011;54007;55.818;49.058;2023-09-19T16:31:13;39.15;;;10.50;;
67090;SDS011;54007;55.818;49.058;2023-09-19T16:33:39;38.23;;;12.37;;
67090;SDS011;54007;55.818;49.058;2023-09-19T16:36:11;45.80;;;13.15;;
67090;SDS011;54007;55.818;49.058;2023-09-19T16:38:37;36.85;;;12.15;;
67090;SDS011;54007;55.818;49.058;2023-09-19T16:41:02;33.78;;;10.00;;
67090;SDS011;54007;55.818;49.058;2023-09-19T16:43:28;36.83;;;8.63;;
67090;SDS011;54007;55.818;49.058;2023-09-19T16:45:57;25.20;;;7.87;;
67090;SDS011;54007;55.818;49.058;2023-09-19T16:48:22;24.52;;;7.22;;
67090;SDS011;54007;55.818;49.058;2023-09-19T16:50:51;27.93;;;6.80;;
67090;SDS011;54007;55.818;49.058;2023-09-19T16:53:14;31.20;;;10.25;;
67090;SDS011;54007;55.818;49.058;2023-09-19T16:55:40;39.83;;;12.10;;
67090;SDS011;54007;55.818;49.058;2023-09-19T16:58:05;39.58;;;15.53;;
67090;SDS011;54007;55.818;49.058;2023-09-19T17:00:31;51.33;;;19.48;;
67090;SDS011;54007;55.818;49.058;2023-09-19T17:02:57;42.37;;;16.93;;
67090;SDS011;54007;55.818;49.058;2023-09-19T17:05:23;50.00;;;14.28;;
67090;SDS011;54007;55.818;49.058;2023-09-19T17:07:49;46.05;;;13.40;;
67090;SDS011;54007;55.818;49.058;2023-09-19T17:10:21;40.10;;;12.75;;
67090;SDS011;54007;55.818;49.058;2023-09-19T17:12:47;44.50;;;12.28;;
67090;SDS011;54007;55.818;49.058;2023-09-19T17:15:12;38.50;;;11.78;;
67090;SDS011;54007;55.818;49.058;2023-09-19T17:17:38;39.27;;;10.48;;
67090;SDS011;54007;55.818;49.058;2023-09-19T17:20:05;30.92;;;9.68;;
67090;SDS011;54007;55.818;49.058;2023-09-19T17:22:30;34.40;;;9.93;;
67090;SDS011;54007;55.818;49.058;2023-09-19T17:24:56;27.77;;;9.05;;
67090;SDS011;54007;55.818;49.058;2023-09-19T17:27:22;44.30;;;9.15;;
67090;SDS011;54007;55.818;49.058;2023-09-19T17:29:48;31.23;;;8.70;;
67090;SDS011;54007;55.818;49.058;2023-09-19T17:32:13;35.50;;;8.60;;
67090;SDS011;54007;55.818;49.058;2023-09-19T17:34:39;29.30;;;7.97;;
67090;SDS011;54007;55.818;49.058;2023-09-19T17:37:08;34.70;;;8.27;;
67090;SDS011;54007;55.818;49.058;2023-09-19T19:14:33;28.30;;;6.95;;
67090;SDS011;54007;55.818;49.058;2023-09-19T19:17:05;24.30;;;6.53;;
67090;SDS011;54007;55.818;49.058;2023-09-19T19:19:31;28.47;;;6.67;;
67090;SDS011;54007;55.818;49.058;2023-09-19T19:21:57;27.05;;;6.78;;
67090;SDS011;54007;55.818;49.058;2023-09-19T19:24:23;23.83;;;6.33;;
67090;SDS011;54007;55.818;49.058;2023-09-19T19:26:48;33.63;;;8.03;;
67090;SDS011;54007;55.818;49.058;2023-09-19T19:29:14;35.05;;;7.87;;
67090;SDS011;54007;55.818;49.058;2023-09-19T19:31:40;30.62;;;7.10;;
67090;SDS011;54007;55.818;49.058;2023-09-19T19:34:06;29.33;;;6.83;;
67090;SDS011;54007;55.818;49.058;2023-09-19T19:36:35;24.23;;;6.80;;
67090;SDS011;54007;55.818;49.058;2023-09-19T19:39:00;29.20;;;7.40;;
67090;SDS011;54007;55.818;49.058;2023-09-19T19:41:26;23.00;;;6.50;;
67090;SDS011;54007;55.818;49.058;2023-09-19T19:43:52;28.40;;;6.33;;
67090;SDS011;54007;55.818;49.058;2023-09-19T19:46:18;29.50;;;5.75;;
67090;SDS011;54007;55.818;49.058;2023-09-19T19:48:47;24.47;;;6.20;;
67090;SDS011;54007;55.818;49.058;2023-09-19T19:51:15;21.65;;;6.37;;
67090;SDS011;54007;55.818;49.058;2023-09-19T19:53:38;26.93;;;7.97;;
67090;SDS011;54007;55.818;49.058;2023-09-19T19:56:04;39.92;;;7.78;;
67090;SDS011;54007;55.818;49.058;2023-09-19T19:58:30;25.90;;;6.55;;
67090;SDS011;54007;55.818;49.058;2023-09-19T20:00:56;27.43;;;6.67;;
67090;SDS011;54007;55.818;49.058;2023-09-19T20:03:22;29.98;;;6.78;;
67090;SDS011;54007;55.818;49.058;2023-09-19T20:05:48;27.40;;;6.50;;
67090;SDS011;54007;55.818;49.058;2023-09-19T20:08:13;24.92;;;5.90;;
67090;SDS011;54007;55.818;49.058;2023-09-19T20:10:39;24.47;;;6.55;;
67090;SDS011;54007;55.818;49.058;2023-09-19T20:13:05;25.13;;;6.90;;
67090;SDS011;54007;55.818;49.058;2023-09-19T20:15:31;31.75;;;7.37;;
67090;SDS011;54007;55.818;49.058;2023-09-19T20:17:57;26.33;;;7.22;;
67090;SDS011;54007;55.818;49.058;2023-09-19T20:20:23;26.37;;;7.35;;
67090;SDS011;54007;55.818;49.058;2023-09-19T20:22:48;26.68;;;6.83;;
67090;SDS011;54007;55.818;49.058;2023-09-19T20:25:14;27.73;;;7.17;;
67090;SDS011;54007;55.818;49.058;2023-09-19T20:27:40;28.10;;;7.72;;
67090;SDS011;54007;55.818;49.058;2023-09-19T20:30:07;27.45;;;7.10;;
67090;SDS011;54007;55.818;49.058;2023-09-19T20:32:32;23.20;;;7.20;;
67090;SDS011;54007;55.818;49.058;2023-09-19T20:35:04;22.02;;;6.78;;
67090;SDS011;54007;55.818;49.058;2023-09-19T20:37:30;23.22;;;6.65;;
67090;SDS011;54007;55.818;49.058;2023-09-19T20:39:56;28.97;;;6.70;;
67090;SDS011;54007;55.818;49.058;2023-09-19T20:42:22;21.25;;;5.97;;
67090;SDS011;54007;55.818;49.058;2023-09-19T20:44:47;24.25;;;6.60;;
67090;SDS011;54007;55.818;49.058;2023-09-19T20:47:13;20.23;;;7.07;;
67090;SDS011;54007;55.818;49.058;2023-09-19T20:49:39;29.00;;;7.55;;
67090;SDS011;54007;55.818;49.058;2023-09-19T20:52:05;22.93;;;7.13;;
67090;SDS011;54007;55.818;49.058;2023-09-19T20:54:31;25.12;;;7.83;;
67090;SDS011;54007;55.818;49.058;2023-09-19T20:56:57;36.53;;;8.28;;
67090;SDS011;54007;55.818;49.058;2023-09-19T20:59:23;30.63;;;7.87;;
67090;SDS011;54007;55.818;49.058;2023-09-19T21:01:48;30.85;;;7.83;;
67090;SDS011;54007;55.818;49.058;2023-09-19T21:04:14;28.20;;;8.03;;
67090;SDS011;54007;55.818;49.058;2023-09-19T21:06:40;35.75;;;8.45;;
